sensor_id;sensor_type;location;lat;lon;timestamp;pressure;altitude;pressure_sealevel;temperature;humidity
69570;BME280;56781;42.292;23.146;2023-04-06T00:01:42;95371.81;;;0.61;80.02
69570;BME280;56781;42.292;23.146;2023-04-06T00:04:09;95383.06;;;0.57;78.96
69570;BME280;56781;42.292;23.146;2023-04-06T00:06:36;95362.09;;;0.28;81.27
69570;BME280;56781;42.292;23.146;2023-04-06T00:09:03;95368.06;;;0.40;81.54
69570;BME280;56781;42.292;23.146;2023-04-06T00:11:31;95367.84;;;0.42;80.93
69570;BME280;56781;42.292;23.146;2023-04-06T00:13:58;95361.78;;;0.25;81.21
69570;BME280;56781;42.292;23.146;2023-04-06T00:16:26;95355.69;;;0.24;80.25
69570;BME280;56781;42.292;23.146;2023-04-06T00:18:56;95366.47;;;0.39;82.70
69570;BME280;56781;42.292;23.146;2023-04-06T00:21:23;95358.25;;;0.53;80.71
69570;BME280;56781;42.292;23.146;2023-04-06T00:23:50;95340.47;;;0.43;79.92
69570;BME280;56781;42.292;23.146;2023-04-06T00:26:18;95344.69;;;0.44;82.12
69570;BME280;56781;42.292;23.146;2023-04-06T00:28:46;95345.31;;;0.51;81.73
69570;BME280;56781;42.292;23.146;2023-04-06T00:31:13;95339.66;;;0.42;81.37
69570;BME280;56781;42.292;23.146;2023-04-06T00:33:41;95333.44;;;0.49;80.99
69570;BME280;56781;42.292;23.146;2023-04-06T00:36:08;95337.75;;;0.55;80.38
69570;BME280;56781;42.292;23.146;2023-04-06T00:38:35;95331.22;;;0.57;81.60
69570;BME280;56781;42.292;23.146;2023-04-06T00:41:03;95368.69;;;0.81;81.16
69570;BME280;56781;42.292;23.146;2023-04-06T00:43:32;95337.28;;;0.58;81.46
69570;BME280;56781;42.292;23.146;2023-04-06T00:45:59;95329.97;;;0.65;81.46
69570;BME280;56781;42.292;23.146;2023-04-06T00:48:26;95337.19;;;0.53;83.32
69570;BME280;56781;42.292;23.146;2023-04-06T00:50:54;95355.72;;;0.58;82.88
69570;BME280;56781;42.292;23.146;2023-04-06T00:53:21;95338.56;;;0.55;82.23
69570;BME280;56781;42.292;23.146;2023-04-06T00:55:48;95339.00;;;0.69;81.61
69570;BME280;56781;42.292;23.146;2023-04-06T00:58:15;95329.78;;;0.50;81.90
69570;BME280;56781;42.292;23.146;2023-04-06T01:00:42;95335.13;;;0.55;81.66
69570;BME280;56781;42.292;23.146;2023-04-06T01:03:09;95330.66;;;0.55;82.25
69570;BME280;56781;42.292;23.146;2023-04-06T01:05:36;95322.81;;;0.60;83.05
69570;BME280;56781;42.292;23.146;2023-04-06T01:08:07;95324.09;;;0.58;83.13
69570;BME280;56781;42.292;23.146;2023-04-06T01:10:34;95323.38;;;0.46;83.09
69570;BME280;56781;42.292;23.146;2023-04-06T01:13:02;95328.41;;;0.47;82.12
69570;BME280;56781;42.292;23.146;2023-04-06T01:15:29;95329.13;;;0.42;83.45
69570;BME280;56781;42.292;23.146;2023-04-06T01:17:57;95327.06;;;0.44;82.66
69570;BME280;56781;42.292;23.146;2023-04-06T01:20:24;95335.91;;;0.55;81.84
69570;BME280;56781;42.292;23.146;2023-04-06T01:22:51;95342.84;;;0.61;81.56
69570;BME280;56781;42.292;23.146;2023-04-06T01:25:18;95324.50;;;0.50;81.31
69570;BME280;56781;42.292;23.146;2023-04-06T01:27:45;95318.50;;;0.54;82.74
69570;BME280;56781;42.292;23.146;2023-04-06T01:30:13;95312.38;;;0.49;83.22
69570;BME280;56781;42.292;23.146;2023-04-06T01:32:40;95306.00;;;0.44;82.43
69570;BME280;56781;42.292;23.146;2023-04-06T01:35:08;95309.13;;;0.41;81.78
69570;BME280;56781;42.292;23.146;2023-04-06T01:37:35;95312.69;;;0.52;81.65
69570;BME280;56781;42.292;23.146;2023-04-06T01:40:02;95316.59;;;0.50;81.34
69570;BME280;56781;42.292;23.146;2023-04-06T01:42:30;95313.97;;;0.50;82.11
69570;BME280;56781;42.292;23.146;2023-04-06T01:44:57;95327.94;;;0.50;80.43
69570;BME280;56781;42.292;23.146;2023-04-06T01:47:24;95314.38;;;0.41;82.78
69570;BME280;56781;42.292;23.146;2023-04-06T01:49:51;95308.63;;;0.44;81.63
69570;BME280;56781;42.292;23.146;2023-04-06T01:52:18;95309.41;;;0.62;81.09
69570;BME280;56781;42.292;23.146;2023-04-06T01:54:45;95290.84;;;0.52;81.81
69570;BME280;56781;42.292;23.146;2023-04-06T01:57:12;95311.91;;;0.52;82.72
69570;BME280;56781;42.292;23.146;2023-04-06T01:59:40;95291.72;;;0.40;82.41
69570;BME280;56781;42.292;23.146;2023-04-06T02:02:07;95326.88;;;0.68;82.50
69570;BME280;56781;42.292;23.146;2023-04-06T02:04:34;95302.47;;;0.56;82.85
69570;BME280;56781;42.292;23.146;2023-04-06T02:07:01;95297.75;;;0.58;82.71
69570;BME280;56781;42.292;23.146;2023-04-06T02:09:28;95290.88;;;0.57;80.99
69570;BME280;56781;42.292;23.146;2023-04-06T02:12:30;95322.56;;;0.62;81.96
69570;BME280;56781;42.292;23.146;2023-04-06T02:15:12;95298.91;;;0.28;79.69
69570;BME280;56781;42.292;23.146;2023-04-06T02:17:41;95306.16;;;0.38;80.29
69570;BME280;56781;42.292;23.146;2023-04-06T02:20:08;95303.59;;;0.43;81.48
69570;BME280;56781;42.292;23.146;2023-04-06T02:22:35;95314.47;;;0.47;82.88
69570;BME280;56781;42.292;23.146;2023-04-06T02:25:03;95287.66;;;0.33;82.86
69570;BME280;56781;42.292;23.146;2023-04-06T02:27:30;95289.75;;;0.31;81.94
69570;BME280;56781;42.292;23.146;2023-04-06T02:29:57;95287.09;;;0.31;81.46
69570;BME280;56781;42.292;23.146;2023-04-06T02:32:24;95286.78;;;0.27;81.97
69570;BME280;56781;42.292;23.146;2023-04-06T02:34:51;95285.44;;;0.08;82.42
69570;BME280;56781;42.292;23.146;2023-04-06T02:37:19;95285.50;;;-0.04;83.08
69570;BME280;56781;42.292;23.146;2023-04-06T02:39:47;95287.34;;;-0.05;83.42
69570;BME280;56781;42.292;23.146;2023-04-06T02:42:14;95291.09;;;-0.01;83.63
69570;BME280;56781;42.292;23.146;2023-04-06T02:44:42;95289.41;;;-0.07;81.45
69570;BME280;56781;42.292;23.146;2023-04-06T02:47:09;95293.50;;;0.01;83.59
69570;BME280;56781;42.292;23.146;2023-04-06T02:49:37;95297.69;;;0.19;83.17
69570;BME280;56781;42.292;23.146;2023-04-06T02:52:04;95288.06;;;0.08;82.24
69570;BME280;56781;42.292;23.146;2023-04-06T02:54:31;95290.38;;;0.21;83.13
69570;BME280;56781;42.292;23.146;2023-04-06T02:56:58;95295.16;;;0.24;82.64
69570;BME280;56781;42.292;23.146;2023-04-06T02:59:25;95292.38;;;0.14;83.95
69570;BME280;56781;42.292;23.146;2023-04-06T03:01:53;95301.53;;;-0.06;82.85
69570;BME280;56781;42.292;23.146;2023-04-06T03:04:20;95308.63;;;0.11;83.61
69570;BME280;56781;42.292;23.146;2023-04-06T03:06:49;95326.16;;;0.05;80.97
69570;BME280;56781;42.292;23.146;2023-04-06T03:09:16;95290.84;;;-0.16;81.26
69570;BME280;56781;42.292;23.146;2023-04-06T03:11:44;95300.09;;;-0.13;82.60
69570;BME280;56781;42.292;23.146;2023-04-06T03:14:11;95309.38;;;0.06;84.32
69570;BME280;56781;42.292;23.146;2023-04-06T03:16:38;95306.34;;;-0.03;83.37
69570;BME280;56781;42.292;23.146;2023-04-06T03:19:05;95304.41;;;-0.24;84.09
69570;BME280;56781;42.292;23.146;2023-04-06T03:21:32;95305.84;;;0.01;83.54
69570;BME280;56781;42.292;23.146;2023-04-06T03:24:00;95302.97;;;-0.15;82.62
69570;BME280;56781;42.292;23.146;2023-04-06T03:26:27;95297.28;;;-0.24;83.35
69570;BME280;56781;42.292;23.146;2023-04-06T03:28:54;95310.84;;;-0.15;85.29
69570;BME280;56781;42.292;23.146;2023-04-06T03:31:21;95306.28;;;-0.19;84.97
69570;BME280;56781;42.292;23.146;2023-04-06T03:33:48;95306.47;;;-0.09;85.56
69570;BME280;56781;42.292;23.146;2023-04-06T03:36:15;95333.56;;;-0.09;84.82
69570;BME280;56781;42.292;23.146;2023-04-06T03:38:43;95300.06;;;-0.30;84.10
69570;BME280;56781;42.292;23.146;2023-04-06T03:41:10;95302.25;;;-0.27;84.09
69570;BME280;56781;42.292;23.146;2023-04-06T03:43:37;95296.72;;;-0.26;83.74
69570;BME280;56781;42.292;23.146;2023-04-06T03:46:04;95328.19;;;-0.02;84.39
69570;BME280;56781;42.292;23.146;2023-04-06T03:48:31;95300.97;;;-0.08;83.11
69570;BME280;56781;42.292;23.146;2023-04-06T03:50:58;95298.09;;;0.11;82.49
69570;BME280;56781;42.292;23.146;2023-04-06T03:53:26;95302.09;;;0.13;83.33
69570;BME280;56781;42.292;23.146;2023-04-06T03:55:53;95303.44;;;0.16;82.14
69570;BME280;56781;42.292;23.146;2023-04-06T03:58:20;95299.16;;;0.10;82.79
69570;BME280;56781;42.292;23.146;2023-04-06T04:00:47;95295.41;;;0.06;84.23
69570;BME280;56781;42.292;23.146;2023-04-06T04:03:15;95292.38;;;0.14;83.07
69570;BME280;56781;42.292;23.146;2023-04-06T04:05:43;95290.22;;;0.28;81.83
69570;BME280;56781;42.292;23.146;2023-04-06T04:08:10;95284.22;;;0.32;81.87
69570;BME280;56781;42.292;23.146;2023-04-06T04:10:37;95326.88;;;0.51;81.22
69570;BME280;56781;42.292;23.146;2023-04-06T04:13:04;95297.25;;;0.22;82.69
69570;BME280;56781;42.292;23.146;2023-04-06T04:15:31;95295.16;;;0.24;83.50
69570;BME280;56781;42.292;23.146;2023-04-06T04:17:58;95291.81;;;0.12;84.38
69570;BME280;56781;42.292;23.146;2023-04-06T04:20:26;95277.47;;;0.19;83.22
69570;BME280;56781;42.292;23.146;2023-04-06T04:22:53;95277.84;;;0.28;81.29
69570;BME280;56781;42.292;23.146;2023-04-06T04:25:20;95286.06;;;0.32;81.08
69570;BME280;56781;42.292;23.146;2023-04-06T04:27:47;95274.75;;;0.31;83.82
69570;BME280;56781;42.292;23.146;2023-04-06T04:30:14;95276.97;;;0.39;84.42
69570;BME280;56781;42.292;23.146;2023-04-06T04:32:42;95283.44;;;0.32;83.15
69570;BME280;56781;42.292;23.146;2023-04-06T04:35:09;95292.91;;;0.50;82.45
69570;BME280;56781;42.292;23.146;2023-04-06T04:37:36;95301.19;;;0.58;81.08
69570;BME280;56781;42.292;23.146;2023-04-06T04:40:04;95284.28;;;0.37;81.91
69570;BME280;56781;42.292;23.146;2023-04-06T04:42:31;95304.41;;;0.43;82.71
69570;BME280;56781;42.292;23.146;2023-04-06T04:44:58;95292.91;;;0.50;82.96
69570;BME280;56781;42.292;23.146;2023-04-06T04:47:26;95289.13;;;0.62;83.62
69570;BME280;56781;42.292;23.146;2023-04-06T04:49:53;95317.34;;;0.84;82.02
69570;BME280;56781;42.292;23.146;2023-04-06T04:52:20;95292.69;;;0.73;81.62
69570;BME280;56781;42.292;23.146;2023-04-06T04:54:47;95297.31;;;0.83;81.46
69570;BME280;56781;42.292;23.146;2023-04-06T04:57:14;95288.50;;;0.94;80.25
69570;BME280;56781;42.292;23.146;2023-04-06T04:59:42;95296.38;;;0.94;81.66
69570;BME280;56781;42.292;23.146;2023-04-06T05:02:10;95286.66;;;0.95;81.74
69570;BME280;56781;42.292;23.146;2023-04-06T05:04:37;95279.09;;;0.81;79.37
69570;BME280;56781;42.292;23.146;2023-04-06T05:07:08;95286.91;;;0.93;80.29
69570;BME280;56781;42.292;23.146;2023-04-06T05:09:35;95290.53;;;1.09;81.42
69570;BME280;56781;42.292;23.146;2023-04-06T05:12:03;95297.38;;;1.10;79.66
69570;BME280;56781;42.292;23.146;2023-04-06T05:14:30;95302.72;;;1.15;81.28
69570;BME280;56781;42.292;23.146;2023-04-06T05:16:57;95293.38;;;1.29;80.16
69570;BME280;56781;42.292;23.146;2023-04-06T05:19:25;95302.22;;;1.67;80.13
69570;BME280;56781;42.292;23.146;2023-04-06T05:21:52;95288.59;;;1.75;78.72
69570;BME280;56781;42.292;23.146;2023-04-06T05:24:19;95316.25;;;2.00;75.68
69570;BME280;56781;42.292;23.146;2023-04-06T05:26:46;95298.09;;;2.09;77.09
69570;BME280;56781;42.292;23.146;2023-04-06T05:29:13;95290.78;;;1.84;75.50
69570;BME280;56781;42.292;23.146;2023-04-06T05:31:42;95297.09;;;2.10;75.22
69570;BME280;56781;42.292;23.146;2023-04-06T05:34:09;95289.66;;;2.39;74.23
69570;BME280;56781;42.292;23.146;2023-04-06T05:36:37;95282.56;;;2.50;75.37
69570;BME280;56781;42.292;23.146;2023-04-06T05:39:04;95281.41;;;2.73;72.17
69570;BME280;56781;42.292;23.146;2023-04-06T05:41:31;95275.56;;;2.71;72.79
69570;BME280;56781;42.292;23.146;2023-04-06T05:43:58;95307.50;;;2.27;73.89
69570;BME280;56781;42.292;23.146;2023-04-06T05:46:26;95276.84;;;1.88;72.99
69570;BME280;56781;42.292;23.146;2023-04-06T05:48:53;95277.28;;;2.44;74.01
69570;BME280;56781;42.292;23.146;2023-04-06T05:51:20;95292.16;;;2.24;74.99
69570;BME280;56781;42.292;23.146;2023-04-06T05:53:47;95271.69;;;2.41;74.46
69570;BME280;56781;42.292;23.146;2023-04-06T05:56:14;95272.84;;;2.55;72.50
69570;BME280;56781;42.292;23.146;2023-04-06T05:58:41;95270.03;;;2.72;71.55
69570;BME280;56781;42.292;23.146;2023-04-06T06:01:09;95256.53;;;3.26;71.78
69570;BME280;56781;42.292;23.146;2023-04-06T06:03:36;95287.03;;;3.54;68.38
69570;BME280;56781;42.292;23.146;2023-04-06T06:06:04;95288.69;;;3.96;67.64
69570;BME280;56781;42.292;23.146;2023-04-06T06:08:31;95259.28;;;3.77;66.84
69570;BME280;56781;42.292;23.146;2023-04-06T06:10:58;95267.03;;;3.11;69.22
69570;BME280;56781;42.292;23.146;2023-04-06T06:13:26;95260.56;;;3.54;68.58
69570;BME280;56781;42.292;23.146;2023-04-06T06:15:53;95275.91;;;3.58;67.94
69570;BME280;56781;42.292;23.146;2023-04-06T06:18:20;95268.22;;;3.46;68.65
69570;BME280;56781;42.292;23.146;2023-04-06T06:20:47;95277.88;;;3.15;68.92
69570;BME280;56781;42.292;23.146;2023-04-06T06:23:14;95268.91;;;3.10;70.43
69570;BME280;56781;42.292;23.146;2023-04-06T06:25:41;95251.84;;;2.81;70.51
69570;BME280;56781;42.292;23.146;2023-04-06T06:28:08;95268.88;;;2.15;73.09
69570;BME280;56781;42.292;23.146;2023-04-06T06:30:36;95257.94;;;2.86;72.45
69570;BME280;56781;42.292;23.146;2023-04-06T06:33:03;95258.97;;;3.53;68.17
69570;BME280;56781;42.292;23.146;2023-04-06T06:35:30;95258.19;;;4.45;66.44
69570;BME280;56781;42.292;23.146;2023-04-06T06:37:57;95264.69;;;5.14;63.43
69570;BME280;56781;42.292;23.146;2023-04-06T06:40:25;95267.53;;;7.04;58.76
69570;BME280;56781;42.292;23.146;2023-04-06T06:42:54;95247.97;;;8.14;53.08
69570;BME280;56781;42.292;23.146;2023-04-06T06:45:21;95252.75;;;7.60;51.85
69570;BME280;56781;42.292;23.146;2023-04-06T06:47:48;95248.25;;;8.31;52.08
69570;BME280;56781;42.292;23.146;2023-04-06T06:50:17;95253.41;;;8.74;51.16
69570;BME280;56781;42.292;23.146;2023-04-06T06:52:44;95259.25;;;10.54;47.03
69570;BME280;56781;42.292;23.146;2023-04-06T06:55:11;95249.78;;;10.48;43.95
69570;BME280;56781;42.292;23.146;2023-04-06T06:57:39;95259.75;;;9.61;44.63
69570;BME280;56781;42.292;23.146;2023-04-06T07:00:06;95247.84;;;11.51;42.37
69570;BME280;56781;42.292;23.146;2023-04-06T07:02:35;95250.72;;;10.52;43.80
69570;BME280;56781;42.292;23.146;2023-04-06T07:05:03;95273.28;;;10.60;45.97
69570;BME280;56781;42.292;23.146;2023-04-06T07:07:50;95241.75;;;9.12;50.86
69570;BME280;56781;42.292;23.146;2023-04-06T07:10:17;95276.41;;;6.71;55.28
69570;BME280;56781;42.292;23.146;2023-04-06T07:12:44;95258.81;;;5.17;60.09
69570;BME280;56781;42.292;23.146;2023-04-06T07:15:12;95259.97;;;5.55;60.52
69570;BME280;56781;42.292;23.146;2023-04-06T07:17:40;95263.50;;;4.60;59.92
69570;BME280;56781;42.292;23.146;2023-04-06T07:20:12;95259.03;;;4.05;65.50
69570;BME280;56781;42.292;23.146;2023-04-06T07:22:42;95279.16;;;3.80;65.67
69570;BME280;56781;42.292;23.146;2023-04-06T07:25:10;95260.75;;;4.96;63.52
69570;BME280;56781;42.292;23.146;2023-04-06T07:27:37;95275.25;;;5.74;59.19
69570;BME280;56781;42.292;23.146;2023-04-06T07:30:05;95258.41;;;4.79;63.40
69570;BME280;56781;42.292;23.146;2023-04-06T07:32:32;95274.66;;;4.27;64.45
69570;BME280;56781;42.292;23.146;2023-04-06T07:35:01;95274.13;;;3.94;66.97
69570;BME280;56781;42.292;23.146;2023-04-06T07:37:29;95262.19;;;4.07;66.06
69570;BME280;56781;42.292;23.146;2023-04-06T07:39:56;95278.91;;;3.97;67.77
69570;BME280;56781;42.292;23.146;2023-04-06T07:42:23;95267.50;;;3.86;66.66
69570;BME280;56781;42.292;23.146;2023-04-06T07:44:50;95269.00;;;4.84;59.87
69570;BME280;56781;42.292;23.146;2023-04-06T07:47:18;95294.75;;;4.79;62.40
69570;BME280;56781;42.292;23.146;2023-04-06T07:49:45;95263.00;;;4.48;63.39
69570;BME280;56781;42.292;23.146;2023-04-06T07:52:12;95273.75;;;5.03;62.55
69570;BME280;56781;42.292;23.146;2023-04-06T07:54:40;95277.28;;;6.32;56.17
69570;BME280;56781;42.292;23.146;2023-04-06T07:57:08;95269.16;;;7.67;52.59
69570;BME280;56781;42.292;23.146;2023-04-06T07:59:35;95260.13;;;8.72;51.03
69570;BME280;56781;42.292;23.146;2023-04-06T08:02:03;95268.66;;;9.01;53.58
69570;BME280;56781;42.292;23.146;2023-04-06T08:04:30;95289.69;;;8.42;53.90
69570;BME280;56781;42.292;23.146;2023-04-06T08:06:57;95256.91;;;8.23;51.77
69570;BME280;56781;42.292;23.146;2023-04-06T08:09:24;95270.72;;;8.44;53.28
69570;BME280;56781;42.292;23.146;2023-04-06T08:11:52;95297.63;;;7.72;51.62
69570;BME280;56781;42.292;23.146;2023-04-06T08:14:19;95252.84;;;7.74;50.89
69570;BME280;56781;42.292;23.146;2023-04-06T08:16:46;95281.25;;;7.60;51.62
69570;BME280;56781;42.292;23.146;2023-04-06T08:19:13;95262.78;;;7.01;56.22
69570;BME280;56781;42.292;23.146;2023-04-06T08:21:44;95295.78;;;6.47;54.69
69570;BME280;56781;42.292;23.146;2023-04-06T08:24:12;95268.13;;;7.01;55.22
69570;BME280;56781;42.292;23.146;2023-04-06T08:26:40;95257.66;;;7.72;54.79
69570;BME280;56781;42.292;23.146;2023-04-06T08:29:08;95275.06;;;6.44;54.87
69570;BME280;56781;42.292;23.146;2023-04-06T08:31:36;95266.19;;;6.25;55.87
69570;BME280;56781;42.292;23.146;2023-04-06T08:34:04;95263.78;;;7.05;56.74
69570;BME280;56781;42.292;23.146;2023-04-06T08:36:33;95257.97;;;7.46;53.88
69570;BME280;56781;42.292;23.146;2023-04-06T08:39:00;95261.53;;;7.42;56.38
69570;BME280;56781;42.292;23.146;2023-04-06T08:41:28;95255.69;;;7.59;56.21
69570;BME280;56781;42.292;23.146;2023-04-06T08:44:00;95258.84;;;8.36;53.37
69570;BME280;56781;42.292;23.146;2023-04-06T08:46:28;95261.03;;;7.77;52.01
69570;BME280;56781;42.292;23.146;2023-04-06T08:48:59;95257.69;;;6.81;53.32
69570;BME280;56781;42.292;23.146;2023-04-06T08:51:28;95263.88;;;6.13;56.00
69570;BME280;56781;42.292;23.146;2023-04-06T08:53:57;95257.38;;;6.58;56.72
69570;BME280;56781;42.292;23.146;2023-04-06T08:56:25;95244.47;;;7.62;52.32
69570;BME280;56781;42.292;23.146;2023-04-06T08:58:54;95273.97;;;8.41;51.24
69570;BME280;56781;42.292;23.146;2023-04-06T09:01:25;95238.56;;;7.84;51.37
69570;BME280;56781;42.292;23.146;2023-04-06T09:04:00;95240.28;;;8.92;52.56
69570;BME280;56781;42.292;23.146;2023-04-06T09:06:27;95240.47;;;9.37;51.58
69570;BME280;56781;42.292;23.146;2023-04-06T09:08:55;95233.44;;;9.41;52.14
69570;BME280;56781;42.292;23.146;2023-04-06T09:11:23;95243.81;;;9.92;46.69
69570;BME280;56781;42.292;23.146;2023-04-06T09:13:52;95228.28;;;9.30;49.18
69570;BME280;56781;42.292;23.146;2023-04-06T09:16:20;95237.97;;;8.38;50.37
69570;BME280;56781;42.292;23.146;2023-04-06T09:18:48;95255.31;;;8.03;49.12
69570;BME280;56781;42.292;23.146;2023-04-06T09:21:19;95246.34;;;7.80;53.09
69570;BME280;56781;42.292;23.146;2023-04-06T09:24:01;95220.56;;;7.57;52.10
69570;BME280;56781;42.292;23.146;2023-04-06T09:26:29;95243.03;;;7.69;51.92
69570;BME280;56781;42.292;23.146;2023-04-06T09:28:57;95204.56;;;7.19;56.00
69570;BME280;56781;42.292;23.146;2023-04-06T09:31:27;95247.03;;;7.29;54.21
69570;BME280;56781;42.292;23.146;2023-04-06T09:33:55;95212.94;;;7.31;55.38
69570;BME280;56781;42.292;23.146;2023-04-06T09:36:34;95209.25;;;7.46;52.91
69570;BME280;56781;42.292;23.146;2023-04-06T09:39:03;95201.66;;;7.58;52.23
69570;BME280;56781;42.292;23.146;2023-04-06T09:41:32;95205.69;;;7.13;53.71
69570;BME280;56781;42.292;23.146;2023-04-06T09:44:04;95200.75;;;6.82;55.29
69570;BME280;56781;42.292;23.146;2023-04-06T09:46:37;95234.50;;;7.29;54.76
69570;BME280;56781;42.292;23.146;2023-04-06T09:49:24;95225.47;;;7.49;56.08
69570;BME280;56781;42.292;23.146;2023-04-06T09:51:57;95171.66;;;6.66;53.65
69570;BME280;56781;42.292;23.146;2023-04-06T09:54:28;95202.50;;;7.53;53.89
69570;BME280;56781;42.292;23.146;2023-04-06T10:00:06;95183.94;;;8.33;52.04
69570;BME280;56781;42.292;23.146;2023-04-06T10:03:11;95212.38;;;8.70;52.12
69570;BME280;56781;42.292;23.146;2023-04-06T10:05:46;95177.81;;;7.67;51.81
69570;BME280;56781;42.292;23.146;2023-04-06T10:08:17;95186.94;;;7.23;55.12
69570;BME280;56781;42.292;23.146;2023-04-06T10:10:46;95185.72;;;7.72;51.24
69570;BME280;56781;42.292;23.146;2023-04-06T10:13:14;95192.44;;;8.35;52.38
69570;BME280;56781;42.292;23.146;2023-04-06T10:15:42;95174.97;;;7.96;52.77
69570;BME280;56781;42.292;23.146;2023-04-06T10:18:10;95182.31;;;7.85;48.42
69570;BME280;56781;42.292;23.146;2023-04-06T10:20:54;95180.91;;;7.74;52.78
69570;BME280;56781;42.292;23.146;2023-04-06T10:23:31;95195.69;;;9.06;54.08
69570;BME280;56781;42.292;23.146;2023-04-06T10:26:00;95163.13;;;9.31;50.83
69570;BME280;56781;42.292;23.146;2023-04-06T10:28:33;95167.78;;;9.62;48.83
69570;BME280;56781;42.292;23.146;2023-04-06T10:31:04;95164.38;;;10.38;49.26
69570;BME280;56781;42.292;23.146;2023-04-06T10:33:31;95168.59;;;9.85;45.58
69570;BME280;56781;42.292;23.146;2023-04-06T10:36:12;95185.88;;;9.65;47.04
69570;BME280;56781;42.292;23.146;2023-04-06T10:38:41;95152.28;;;9.73;48.15
69570;BME280;56781;42.292;23.146;2023-04-06T10:41:10;95176.13;;;9.47;49.40
69570;BME280;56781;42.292;23.146;2023-04-06T10:43:39;95154.34;;;9.53;47.62
69570;BME280;56781;42.292;23.146;2023-04-06T10:46:08;95153.56;;;9.03;47.70
69570;BME280;56781;42.292;23.146;2023-04-06T10:48:38;95140.97;;;9.17;48.02
69570;BME280;56781;42.292;23.146;2023-04-06T10:51:15;95150.38;;;9.01;50.21
69570;BME280;56781;42.292;23.146;2023-04-06T10:53:46;95156.97;;;9.67;48.68
69570;BME280;56781;42.292;23.146;2023-04-06T10:56:16;95162.50;;;9.71;50.65
69570;BME280;56781;42.292;23.146;2023-04-06T10:58:50;95170.22;;;10.17;49.04
69570;BME280;56781;42.292;23.146;2023-04-06T11:01:20;95169.00;;;7.85;52.16
69570;BME280;56781;42.292;23.146;2023-04-06T11:03:53;95135.97;;;7.10;56.69
69570;BME280;56781;42.292;23.146;2023-04-06T11:06:26;95141.06;;;6.88;56.68
69570;BME280;56781;42.292;23.146;2023-04-06T11:08:54;95132.69;;;7.19;60.67
69570;BME280;56781;42.292;23.146;2023-04-06T11:11:23;95140.31;;;7.63;59.91
69570;BME280;56781;42.292;23.146;2023-04-06T11:13:58;95132.69;;;7.38;58.40
69570;BME280;56781;42.292;23.146;2023-04-06T11:19:04;95152.81;;;6.63;62.20
69570;BME280;56781;42.292;23.146;2023-04-06T11:21:37;95130.44;;;6.40;60.99
69570;BME280;56781;42.292;23.146;2023-04-06T11:24:10;95164.97;;;6.45;62.23
69570;BME280;56781;42.292;23.146;2023-04-06T11:26:42;95136.09;;;6.09;61.09
69570;BME280;56781;42.292;23.146;2023-04-06T11:29:11;95127.16;;;6.00;61.72
69570;BME280;56781;42.292;23.146;2023-04-06T11:31:40;95135.81;;;6.35;61.93
69570;BME280;56781;42.292;23.146;2023-04-06T11:34:12;95133.28;;;6.25;63.29
69570;BME280;56781;42.292;23.146;2023-04-06T11:36:40;95138.84;;;5.99;62.48
69570;BME280;56781;42.292;23.146;2023-04-06T11:39:09;95127.06;;;5.76;63.44
69570;BME280;56781;42.292;23.146;2023-04-06T11:41:36;95114.13;;;5.98;64.68
69570;BME280;56781;42.292;23.146;2023-04-06T11:44:05;95133.31;;;5.90;61.42
69570;BME280;56781;42.292;23.146;2023-04-06T11:46:32;95114.97;;;5.89;63.19
69570;BME280;56781;42.292;23.146;2023-04-06T11:49:01;95131.03;;;5.78;61.91
69570;BME280;56781;42.292;23.146;2023-04-06T11:51:28;95128.63;;;5.43;61.16
69570;BME280;56781;42.292;23.146;2023-04-06T11:53:56;95121.34;;;5.93;62.04
69570;BME280;56781;42.292;23.146;2023-04-06T11:56:28;95145.38;;;5.77;58.81
69570;BME280;56781;42.292;23.146;2023-04-06T11:58:57;95124.56;;;5.90;60.05
69570;BME280;56781;42.292;23.146;2023-04-06T12:01:25;95121.63;;;6.20;62.61
69570;BME280;56781;42.292;23.146;2023-04-06T12:03:53;95118.72;;;6.46;60.64
69570;BME280;56781;42.292;23.146;2023-04-06T12:06:21;95117.56;;;6.52;60.05
69570;BME280;56781;42.292;23.146;2023-04-06T12:08:48;95125.59;;;6.23;59.56
69570;BME280;56781;42.292;23.146;2023-04-06T12:11:15;95128.16;;;6.04;61.23
69570;BME280;56781;42.292;23.146;2023-04-06T12:13:45;95140.53;;;6.43;61.88
69570;BME280;56781;42.292;23.146;2023-04-06T12:16:12;95126.38;;;6.72;59.04
69570;BME280;56781;42.292;23.146;2023-04-06T12:18:39;95130.16;;;6.90;60.25
69570;BME280;56781;42.292;23.146;2023-04-06T12:21:07;95144.94;;;6.77;57.59
69570;BME280;56781;42.292;23.146;2023-04-06T12:23:34;95104.81;;;6.01;59.46
69570;BME280;56781;42.292;23.146;2023-04-06T12:26:01;95130.81;;;6.04;60.05
69570;BME280;56781;42.292;23.146;2023-04-06T12:28:29;95112.47;;;5.73;61.04
69570;BME280;56781;42.292;23.146;2023-04-06T12:30:56;95129.75;;;6.05;60.98
69570;BME280;56781;42.292;23.146;2023-04-06T12:33:24;95118.09;;;6.01;61.29
69570;BME280;56781;42.292;23.146;2023-04-06T12:35:51;95109.25;;;6.11;60.52
69570;BME280;56781;42.292;23.146;2023-04-06T12:38:19;95117.16;;;5.87;60.31
69570;BME280;56781;42.292;23.146;2023-04-06T12:40:47;95123.09;;;5.73;61.35
69570;BME280;56781;42.292;23.146;2023-04-06T12:43:14;95109.25;;;5.76;60.18
69570;BME280;56781;42.292;23.146;2023-04-06T12:45:41;95114.69;;;5.61;58.66
69570;BME280;56781;42.292;23.146;2023-04-06T12:48:08;95118.16;;;5.91;63.25
69570;BME280;56781;42.292;23.146;2023-04-06T12:50:36;95111.28;;;5.90;59.75
69570;BME280;56781;42.292;23.146;2023-04-06T12:53:03;95126.69;;;5.88;59.39
69570;BME280;56781;42.292;23.146;2023-04-06T12:55:30;95111.91;;;5.76;61.12
69570;BME280;56781;42.292;23.146;2023-04-06T12:57:58;95112.59;;;5.58;59.29
69570;BME280;56781;42.292;23.146;2023-04-06T13:00:26;95106.00;;;5.50;62.09
69570;BME280;56781;42.292;23.146;2023-04-06T13:02:53;95096.09;;;5.61;59.90
69570;BME280;56781;42.292;23.146;2023-04-06T13:05:20;95108.59;;;5.61;62.00
69570;BME280;56781;42.292;23.146;2023-04-06T13:07:48;95100.09;;;5.59;62.22
69570;BME280;56781;42.292;23.146;2023-04-06T13:10:15;95097.59;;;5.72;62.71
69570;BME280;56781;42.292;23.146;2023-04-06T13:12:42;95132.09;;;5.77;61.48